Time;durP1;ratioP1;P1;durP2;ratioP2;P2;SDS_P1;SDS_P2;PMS_P1;PMS_P2;Temp;Humidity;BMP_temperature;BMP_pressure;BME280_temperature;BME280_humidity;BME280_pressure;Samples;Min_cycle;Max_cycle;Signal;HPM_P1;HPM_P2
2023/05/13 00:01:13;;;;;;;2.30;2.10;;;18.40;80.50;;;;;;5116583;28;20031;-80
2023/05/13 00:03:39;;;;;;;4.20;2.50;;;18.30;80.90;;;;;;5116858;28;20036;-79
2023/05/13 00:06:05;;;;;;;3.75;2.45;;;18.30;80.10;;;;;;5098241;28;20114;-79
2023/05/13 00:08:31;;;;;;;4.97;2.45;;;18.10;80.30;;;;;;5116463;28;20489;-80
2023/05/13 00:10:56;;;;;;;4.88;2.30;;;18.00;80.20;;;;;;5116372;28;20024;-79
2023/05/13 00:13:22;;;;;;;2.60;1.88;;;18.00;80.30;;;;;;5098143;28;20031;-79
2023/05/13 00:15:48;;;;;;;4.18;2.13;;;18.00;80.60;;;;;;5115301;28;20127;-80
2023/05/13 00:18:13;;;;;;;3.03;2.10;;;18.00;80.80;;;;;;5081326;28;20443;-80
2023/05/13 00:20:39;;;;;;;3.45;1.88;;;18.00;80.60;;;;;;5097430;28;20489;-80
2023/05/13 00:23:06;;;;;;;4.47;2.20;;;17.90;80.30;;;;;;5098076;28;20038;-80
2023/05/13 00:25:32;;;;;;;4.80;2.58;;;17.90;80.60;;;;;;5098339;28;20028;-79
2023/05/13 00:27:58;;;;;;;6.45;2.47;;;17.90;81.00;;;;;;5115800;28;20517;-80
2023/05/13 00:30:23;;;;;;;4.32;1.85;;;17.80;79.70;;;;;;5097680;28;20325;-80
2023/05/13 00:32:49;;;;;;;2.85;1.73;;;17.80;80.80;;;;;;5115968;28;20453;-80
2023/05/13 00:35:15;;;;;;;5.18;2.50;;;17.90;81.50;;;;;;5116199;28;20410;-80
2023/05/13 00:37:41;;;;;;;4.32;2.50;;;17.90;79.90;;;;;;5080730;28;20035;-80
2023/05/13 00:40:23;;;;;;;7.57;1.95;;;17.80;79.60;;;;;;5081137;28;20468;-80
2023/05/13 00:42:49;;;;;;;4.70;2.92;;;17.80;80.50;;;;;;5115915;28;20070;-80
2023/05/13 00:45:16;;;;;;;2.65;2.00;;;17.80;79.50;;;;;;5097330;28;20031;-79
2023/05/13 00:47:42;;;;;;;2.72;2.30;;;17.80;80.80;;;;;;5115426;28;20476;-80
2023/05/13 00:50:09;;;;;;;3.17;1.90;;;17.80;80.90;;;;;;5097174;28;20028;-80
2023/05/13 00:52:37;;;;;;;4.30;2.30;;;17.90;80.90;;;;;;5115771;28;20035;-80
2023/05/13 00:55:04;;;;;;;3.00;2.10;;;17.80;79.90;;;;;;5097241;28;20480;-80
2023/05/13 00:57:30;;;;;;;4.53;2.85;;;17.90;80.60;;;;;;5115510;28;20073;-80
2023/05/13 00:59:56;;;;;;;2.95;2.28;;;17.90;79.10;;;;;;5097333;28;20024;-81
2023/05/13 01:02:39;;;;;;;6.22;2.50;;;17.80;79.80;;;;;;5096966;28;20491;-80
2023/05/13 01:05:15;;;;;;;3.25;2.10;;;17.80;80.10;;;;;;5114028;28;20412;-79
2023/05/13 01:07:50;;;;;;;4.97;2.65;;;17.80;80.90;;;;;;5097225;28;20476;-79
2023/05/13 01:10:42;;;;;;;3.50;2.67;;;17.80;79.60;;;;;;5115234;28;20027;-80
2023/05/13 01:13:12;;;;;;;7.30;3.40;;;17.60;79.40;;;;;;5103952;28;20047;-80
2023/05/13 01:15:46;;;;;;;5.25;2.70;;;17.50;79.90;;;;;;5115204;28;20507;-80
2023/05/13 01:18:18;;;;;;;4.88;2.78;;;17.40;79.70;;;;;;5115006;28;20082;-79
2023/05/13 01:20:45;;;;;;;6.37;2.97;;;17.40;80.00;;;;;;5114424;28;20016;-79
2023/05/13 01:23:11;;;;;;;4.75;2.20;;;17.50;80.30;;;;;;5115194;28;20741;-80
2023/05/13 01:25:39;;;;;;;5.38;2.10;;;17.50;80.70;;;;;;5096309;28;20027;-80
2023/05/13 01:28:07;;;;;;;3.35;2.20;;;17.50;81.50;;;;;;5114877;28;20506;-80
2023/05/13 01:30:33;;;;;;;5.68;2.40;;;17.50;80.90;;;;;;5096669;28;20122;-80
2023/05/13 01:33:00;;;;;;;2.85;2.03;;;17.60;80.90;;;;;;5096528;28;20059;-80
2023/05/13 01:35:27;;;;;;;3.55;2.53;;;17.70;81.30;;;;;;5096892;28;20027;-80
2023/05/13 01:37:54;;;;;;;3.15;2.17;;;17.70;81.40;;;;;;5114735;28;20106;-80
2023/05/13 01:40:20;;;;;;;3.30;1.70;;;17.70;81.10;;;;;;5114896;28;20132;-80
2023/05/13 01:42:45;;;;;;;8.93;2.90;;;17.70;81.70;;;;;;5096599;28;20483;-80
2023/05/13 01:45:11;;;;;;;4.95;2.65;;;17.80;81.10;;;;;;5079677;28;20036;-80
2023/05/13 01:47:37;;;;;;;4.10;2.67;;;17.80;80.20;;;;;;5096373;28;20376;-80
2023/05/13 01:50:03;;;;;;;7.97;3.22;;;17.70;80.60;;;;;;5114242;28;20024;-80
2023/05/13 01:52:28;;;;;;;3.67;2.40;;;17.70;80.10;;;;;;5096494;28;20023;-81
2023/05/13 01:54:54;;;;;;;4.15;2.40;;;17.60;80.20;;;;;;5096492;28;20039;-80
2023/05/13 01:57:19;;;;;;;3.40;2.20;;;17.60;80.10;;;;;;5095924;28;20415;-79
2023/05/13 01:59:45;;;;;;;5.40;2.40;;;17.60;80.60;;;;;;5113413;28;20119;-79
2023/05/13 02:02:11;;;;;;;3.38;2.30;;;17.60;80.90;;;;;;5096065;28;20030;-79
2023/05/13 02:04:36;;;;;;;3.05;1.90;;;17.60;80.90;;;;;;5096638;28;20051;-79
2023/05/13 02:07:02;;;;;;;6.18;3.05;;;17.70;81.10;;;;;;5113364;28;20028;-80
2023/05/13 02:09:28;;;;;;;4.20;2.05;;;17.70;81.20;;;;;;5096254;28;20094;-80
2023/05/13 02:11:54;;;;;;;3.92;1.88;;;17.70;81.60;;;;;;5114306;28;20024;-80
2023/05/13 02:14:19;;;;;;;4.72;2.20;;;17.80;81.80;;;;;;5095224;28;20027;-80
2023/05/13 02:16:45;;;;;;;3.42;1.88;;;17.80;81.80;;;;;;5079091;28;20361;-80
2023/05/13 02:19:11;;;;;;;2.65;2.35;;;17.90;81.70;;;;;;5096324;28;20027;-79
2023/05/13 02:21:36;;;;;;;5.15;2.90;;;17.80;81.10;;;;;;5113920;28;20036;-79
2023/05/13 02:24:02;;;;;;;4.07;2.22;;;17.80;80.60;;;;;;5096069;28;20540;-79
2023/05/13 02:26:28;;;;;;;3.42;2.58;;;17.70;81.10;;;;;;5114386;28;20032;-79
2023/05/13 02:28:54;;;;;;;4.90;2.40;;;17.70;81.20;;;;;;5114907;28;20059;-79
2023/05/13 02:31:20;;;;;;;5.03;2.97;;;17.70;81.40;;;;;;5114071;28;20031;-79
2023/05/13 02:33:45;;;;;;;3.15;2.10;;;17.70;81.10;;;;;;5114475;28;20359;-80
2023/05/13 02:36:11;;;;;;;5.88;2.95;;;17.60;80.50;;;;;;5114373;28;20415;-79
2023/05/13 02:38:37;;;;;;;4.75;2.70;;;17.60;81.50;;;;;;5114064;28;20028;-80
2023/05/13 02:41:02;;;;;;;2.13;1.92;;;17.50;81.20;;;;;;5095357;28;20070;-80
2023/05/13 02:43:28;;;;;;;3.33;2.13;;;17.60;82.10;;;;;;5114274;28;20131;-80
2023/05/13 02:45:54;;;;;;;4.05;2.65;;;17.60;81.90;;;;;;5096281;28;20059;-80
2023/05/13 02:48:20;;;;;;;4.72;3.15;;;17.60;81.80;;;;;;5113652;28;20476;-80
2023/05/13 02:50:46;;;;;;;4.47;2.35;;;17.60;81.40;;;;;;5112586;28;20114;-80
2023/05/13 02:53:11;;;;;;;6.25;3.17;;;17.50;81.80;;;;;;5113767;28;20039;-80
2023/05/13 02:55:37;;;;;;;4.88;2.70;;;17.60;82.20;;;;;;5095769;28;20039;-80
2023/05/13 02:58:03;;;;;;;3.17;2.08;;;17.50;81.70;;;;;;5114174;28;20515;-80
2023/05/13 03:00:29;;;;;;;6.25;2.58;;;17.50;82.10;;;;;;5113808;28;20038;-80
2023/05/13 03:02:55;;;;;;;3.00;2.58;;;17.50;82.50;;;;;;5095633;28;20031;-79
2023/05/13 03:05:21;;;;;;;5.10;2.83;;;17.50;82.70;;;;;;5078618;28;20055;-79
2023/05/13 03:07:46;;;;;;;4.53;2.90;;;17.40;81.70;;;;;;5113697;28;20032;-80
2023/05/13 03:10:12;;;;;;;4.68;3.22;;;17.40;82.10;;;;;;5114269;28;20028;-80
2023/05/13 03:12:38;;;;;;;5.68;3.60;;;17.40;81.90;;;;;;5078473;28;20360;-80
2023/05/13 03:15:04;;;;;;;14.80;4.50;;;17.20;81.50;;;;;;5113694;28;20074;-80
2023/05/13 03:17:30;;;;;;;9.38;4.45;;;17.10;81.80;;;;;;5113349;28;20039;-80
2023/05/13 03:19:57;;;;;;;6.22;3.67;;;16.70;82.40;;;;;;5112258;28;20066;-80
2023/05/13 03:22:22;;;;;;;6.80;3.90;;;16.50;83.40;;;;;;5095304;28;20081;-79
2023/05/13 03:24:48;;;;;;;5.65;3.38;;;16.40;84.10;;;;;;5113774;28;20073;-79
2023/05/13 03:27:14;;;;;;;5.28;3.15;;;16.40;84.60;;;;;;5078482;28;20552;-79
2023/05/13 03:29:39;;;;;;;5.15;3.50;;;16.50;84.90;;;;;;5097205;28;20067;-79
2023/05/13 03:32:06;;;;;;;5.25;3.92;;;16.50;84.70;;;;;;5078473;28;20407;-79
2023/05/13 03:34:32;;;;;;;5.80;3.65;;;16.50;84.70;;;;;;5078596;28;20032;-79
2023/05/13 03:36:58;;;;;;;3.40;2.78;;;16.60;84.80;;;;;;5097054;28;20047;-79
2023/05/13 03:39:25;;;;;;;5.78;4.10;;;16.60;85.00;;;;;;5095796;28;20380;-79
2023/05/13 03:41:51;;;;;;;5.05;3.28;;;16.60;84.80;;;;;;5078827;28;20032;-79
2023/05/13 03:44:17;;;;;;;6.28;3.72;;;16.60;84.60;;;;;;5096575;28;20036;-79
2023/05/13 03:46:42;;;;;;;4.65;3.55;;;16.50;85.10;;;;;;5095980;28;20039;-79
2023/05/13 03:49:08;;;;;;;7.35;4.43;;;16.50;85.30;;;;;;5095677;28;20111;-79
2023/05/13 03:51:34;;;;;;;8.32;4.20;;;16.40;85.20;;;;;;5096693;28;20043;-79
2023/05/13 03:54:01;;;;;;;5.57;4.07;;;16.40;85.30;;;;;;5096623;28;20496;-79
2023/05/13 03:56:26;;;;;;;4.10;3.50;;;16.30;85.40;;;;;;5078757;28;20455;-79
2023/05/13 03:58:52;;;;;;;4.70;4.10;;;16.30;86.00;;;;;;5078742;28;20090;-79
2023/05/13 04:01:18;;;;;;;7.65;5.13;;;16.40;85.60;;;;;;5095190;28;20115;-79
2023/05/13 04:03:45;;;;;;;6.20;3.72;;;16.30;85.70;;;;;;5096008;28;20053;-79
2023/05/13 04:06:12;;;;;;;4.63;3.63;;;16.20;85.70;;;;;;5096704;28;20032;-79
2023/05/13 04:08:38;;;;;;;6.88;3.20;;;16.20;86.50;;;;;;5095903;28;20024;-79
2023/05/13 04:11:04;;;;;;;6.53;4.65;;;16.20;86.50;;;;;;5094944;28;20032;-79
2023/05/13 04:13:31;;;;;;;4.05;2.75;;;16.30;86.40;;;;;;5096415;28;20039;-79
2023/05/13 04:15:57;;;;;;;4.35;3.70;;;16.30;86.80;;;;;;5095132;28;20036;-79
2023/05/13 04:18:22;;;;;;;3.38;2.90;;;16.40;87.00;;;;;;5078608;28;20492;-79
2023/05/13 04:20:48;;;;;;;6.75;5.00;;;16.40;87.40;;;;;;5094714;28;20111;-79
2023/05/13 04:23:13;;;;;;;4.78;3.80;;;16.50;86.50;;;;;;5094624;28;20431;-79
2023/05/13 04:25:39;;;;;;;5.85;4.07;;;16.40;87.00;;;;;;5095860;28;20078;-79
2023/05/13 04:28:06;;;;;;;6.18;4.50;;;16.40;86.60;;;;;;5094421;28;20059;-79
2023/05/13 04:30:31;;;;;;;6.07;3.55;;;16.40;86.60;;;;;;5094584;28;20052;-79
2023/05/13 04:32:57;;;;;;;5.07;4.32;;;16.30;86.70;;;;;;5095862;28;20529;-78
2023/05/13 04:35:23;;;;;;;4.70;4.13;;;16.40;87.50;;;;;;5095914;28;20032;-79
2023/05/13 04:37:48;;;;;;;4.75;3.58;;;16.40;87.00;;;;;;5094523;28;20028;-79
2023/05/13 04:40:14;;;;;;;6.65;4.22;;;16.40;87.30;;;;;;5094371;28;20062;-79
2023/05/13 04:42:40;;;;;;;7.68;4.80;;;16.40;86.50;;;;;;5095218;28;20028;-79
2023/05/13 04:45:06;;;;;;;8.45;4.57;;;16.40;87.40;;;;;;5077325;28;20024;-79
2023/05/13 04:47:34;;;;;;;7.05;5.13;;;16.40;87.20;;;;;;5095124;28;20046;-79
2023/05/13 04:50:00;;;;;;;5.20;4.10;;;16.30;87.10;;;;;;5095572;28;20028;-79
2023/05/13 04:52:26;;;;;;;7.05;4.50;;;16.20;87.30;;;;;;5094031;28;20043;-79
2023/05/13 04:54:51;;;;;;;7.30;5.15;;;16.30;87.70;;;;;;5094990;28;20028;-78
2023/05/13 04:57:17;;;;;;;9.57;4.68;;;16.10;87.30;;;;;;5095483;28;20032;-79
2023/05/13 04:59:42;;;;;;;9.88;5.00;;;16.10;87.90;;;;;;5094224;28;20032;-79
2023/05/13 05:02:08;;;;;;;6.85;4.78;;;16.20;88.10;;;;;;5094009;28;20036;-79
2023/05/13 05:04:34;;;;;;;6.20;4.28;;;16.30;88.40;;;;;;5095330;28;20039;-79
2023/05/13 05:06:59;;;;;;;8.98;6.03;;;16.30;88.10;;;;;;5094978;28;20039;-79
2023/05/13 05:09:25;;;;;;;7.35;5.00;;;16.20;87.20;;;;;;5095003;28;20032;-79
2023/05/13 05:11:51;;;;;;;5.55;4.57;;;15.90;87.90;;;;;;5094981;28;20385;-79
2023/05/13 05:14:16;;;;;;;5.35;4.47;;;15.80;88.80;;;;;;5094763;28;20082;-79
2023/05/13 05:16:42;;;;;;;8.07;5.80;;;15.60;89.40;;;;;;5094815;28;20196;-79
2023/05/13 05:19:07;;;;;;;7.85;5.90;;;15.70;89.70;;;;;;5094833;28;20024;-79
2023/05/13 05:21:33;;;;;;;10.27;5.95;;;15.70;89.60;;;;;;5094735;28;20028;-78
2023/05/13 05:24:00;;;;;;;6.30;4.70;;;15.70;89.70;;;;;;5094389;28;20120;-79
2023/05/13 05:26:26;;;;;;;6.85;5.80;;;15.60;90.10;;;;;;5094303;28;20032;-78
2023/05/13 05:28:52;;;;;;;7.75;6.65;;;15.70;90.00;;;;;;5093258;28;20107;-78
2023/05/13 05:31:17;;;;;;;7.05;5.70;;;15.60;90.10;;;;;;5096354;28;20034;-78
2023/05/13 05:33:43;;;;;;;7.93;5.68;;;15.50;90.20;;;;;;5114824;28;20040;-79
2023/05/13 05:36:09;;;;;;;8.82;6.28;;;15.50;90.60;;;;;;5114614;28;20058;-79
2023/05/13 05:38:34;;;;;;;10.40;5.90;;;15.50;90.60;;;;;;5096990;28;20452;-79
2023/05/13 05:41:00;;;;;;;4.60;4.10;;;15.50;90.80;;;;;;5114764;28;20407;-79
2023/05/13 05:43:26;;;;;;;7.90;5.38;;;15.60;91.00;;;;;;5114784;28;20443;-79
2023/05/13 05:45:51;;;;;;;9.27;5.00;;;15.80;90.80;;;;;;5096649;28;20035;-79
2023/05/13 05:48:17;;;;;;;8.25;5.53;;;15.80;90.60;;;;;;5097210;28;20390;-79
2023/05/13 05:50:43;;;;;;;9.02;5.18;;;15.80;90.70;;;;;;5115388;28;20367;-79
2023/05/13 05:53:08;;;;;;;9.50;6.55;;;15.90;90.70;;;;;;5096392;28;20028;-79
2023/05/13 05:55:34;;;;;;;11.35;6.18;;;15.90;90.20;;;;;;5096195;28;20036;-79
2023/05/13 05:58:04;;;;;;;9.68;6.50;;;15.80;90.50;;;;;;5114238;28;20034;-79
2023/05/13 06:00:30;;;;;;;9.07;5.47;;;15.80;90.60;;;;;;5114453;28;20044;-79
2023/05/13 06:02:56;;;;;;;5.90;4.50;;;15.90;90.60;;;;;;5095967;28;20467;-79
2023/05/13 06:05:22;;;;;;;6.53;5.13;;;16.00;90.80;;;;;;5079356;28;20027;-79
2023/05/13 06:07:47;;;;;;;12.07;6.78;;;16.10;90.60;;;;;;5114708;28;20046;-79
2023/05/13 06:10:13;;;;;;;7.65;6.03;;;16.10;90.50;;;;;;5096600;28;20460;-79
2023/05/13 06:12:40;;;;;;;7.72;5.93;;;16.00;90.70;;;;;;5113801;28;20031;-79
2023/05/13 06:15:09;;;;;;;7.30;5.40;;;15.90;90.70;;;;;;5114484;28;20036;-79
2023/05/13 06:17:35;;;;;;;9.07;5.78;;;16.10;90.90;;;;;;5096447;28;20555;-79
2023/05/13 06:20:02;;;;;;;8.70;5.57;;;16.20;90.70;;;;;;5096055;28;20031;-79
2023/05/13 06:22:27;;;;;;;8.68;5.72;;;16.20;90.40;;;;;;5114230;28;20460;-79
2023/05/13 06:24:53;;;;;;;10.85;5.43;;;16.10;90.40;;;;;;5114128;28;20038;-79
2023/05/13 06:27:18;;;;;;;6.70;4.43;;;16.10;90.60;;;;;;5114030;28;20027;-79
2023/05/13 06:29:44;;;;;;;13.15;6.10;;;16.10;90.70;;;;;;5113053;28;20052;-79
2023/05/13 06:32:10;;;;;;;8.48;5.50;;;16.30;90.60;;;;;;5096288;28;20067;-79
2023/05/13 06:34:37;;;;;;;7.68;4.55;;;16.40;90.60;;;;;;5113975;28;20031;-79
2023/05/13 06:37:02;;;;;;;8.60;4.90;;;16.50;90.50;;;;;;5096362;28;20038;-79
2023/05/13 06:39:28;;;;;;;11.05;5.60;;;16.70;90.30;;;;;;5113304;28;20032;-79
2023/05/13 06:41:54;;;;;;;8.40;5.32;;;16.70;90.20;;;;;;5113724;28;20027;-79
2023/05/13 06:44:19;;;;;;;9.63;5.45;;;16.70;90.30;;;;;;5113877;28;20115;-80
2023/05/13 06:46:45;;;;;;;11.75;5.72;;;16.70;90.00;;;;;;5096087;28;20034;-80
2023/05/13 06:49:11;;;;;;;8.07;5.18;;;16.70;90.00;;;;;;5095406;28;20468;-79
2023/05/13 06:51:36;;;;;;;8.13;4.85;;;16.70;90.20;;;;;;5113531;28;20042;-79
2023/05/13 06:54:02;;;;;;;8.32;4.90;;;16.80;90.20;;;;;;5113499;28;20036;-79
2023/05/13 06:56:28;;;;;;;6.57;4.07;;;16.90;90.30;;;;;;5113871;28;20028;-79
2023/05/13 06:58:54;;;;;;;7.15;4.55;;;17.10;90.30;;;;;;5113898;28;20070;-79
2023/05/13 07:01:20;;;;;;;5.47;4.57;;;17.20;90.30;;;;;;5098370;28;20056;-79
2023/05/13 07:03:46;;;;;;;8.93;4.80;;;17.30;89.90;;;;;;5116529;28;20038;-79
2023/05/13 07:06:11;;;;;;;6.45;4.72;;;17.30;90.00;;;;;;5118396;28;20488;-79
2023/05/13 07:08:37;;;;;;;6.68;4.00;;;17.50;89.50;;;;;;5099502;28;20035;-79
2023/05/13 07:11:03;;;;;;;7.40;4.50;;;17.50;88.90;;;;;;5117617;28;20035;-79
2023/05/13 07:13:32;;;;;;;6.38;5.22;;;17.50;88.70;;;;;;5116379;28;20028;-79
2023/05/13 07:15:57;;;;;;;7.93;5.78;;;17.50;87.90;;;;;;5118156;28;20084;-79
2023/05/13 07:18:23;;;;;;;8.57;5.32;;;17.50;87.80;;;;;;5117860;28;20035;-79
2023/05/13 07:20:49;;;;;;;6.53;4.90;;;17.30;87.80;;;;;;5099114;28;20024;-79
2023/05/13 07:23:14;;;;;;;8.90;4.88;;;16.90;88.90;;;;;;5099349;28;20108;-79
2023/05/13 07:25:40;;;;;;;6.40;4.50;;;17.00;90.20;;;;;;5117069;28;20456;-79
2023/05/13 07:28:06;;;;;;;6.03;4.70;;;17.20;90.50;;;;;;5117065;28;20139;-79
2023/05/13 07:30:32;;;;;;;11.35;4.65;;;17.40;90.60;;;;;;5099658;28;20222;-79
2023/05/13 07:32:58;;;;;;;9.45;4.68;;;17.60;90.80;;;;;;5117503;28;20107;-79
2023/05/13 07:35:23;;;;;;;8.63;4.82;;;17.90;90.10;;;;;;5117181;28;20418;-79
2023/05/13 07:37:49;;;;;;;7.22;4.65;;;18.00;89.20;;;;;;5117190;28;20073;-79
2023/05/13 07:40:16;;;;;;;8.05;4.90;;;18.10;88.90;;;;;;5117115;28;20031;-80
2023/05/13 07:42:42;;;;;;;8.50;3.85;;;18.20;88.20;;;;;;5117092;28;20088;-79
2023/05/13 07:45:08;;;;;;;4.75;3.80;;;18.30;89.00;;;;;;5082347;28;20515;-79
2023/05/13 07:47:33;;;;;;;6.18;4.10;;;18.30;88.20;;;;;;5116381;28;20031;-79
2023/05/13 07:50:00;;;;;;;8.63;4.10;;;18.40;88.00;;;;;;5116939;28;20369;-79
2023/05/13 07:52:26;;;;;;;8.75;3.30;;;18.60;88.70;;;;;;5117216;28;20039;-79
2023/05/13 07:54:51;;;;;;;5.60;3.47;;;18.80;88.70;;;;;;5116825;28;20032;-79
2023/05/13 07:57:17;;;;;;;5.28;3.28;;;18.90;87.50;;;;;;5117191;28;20031;-79
2023/05/13 07:59:43;;;;;;;6.70;3.22;;;19.10;85.20;;;;;;5098577;28;20491;-79
2023/05/13 08:02:10;;;;;;;3.67;2.42;;;19.20;83.20;;;;;;5116731;28;20035;-79
2023/05/13 08:04:35;;;;;;;7.53;3.20;;;19.10;83.50;;;;;;5116589;28;20035;-79
2023/05/13 08:07:01;;;;;;;4.63;2.70;;;19.30;83.50;;;;;;5116635;28;20023;-79
2023/05/13 08:09:33;;;;;;;9.20;3.25;;;19.30;83.10;;;;;;5098325;28;20028;-79
2023/05/13 08:11:58;;;;;;;3.47;2.50;;;19.50;83.70;;;;;;5097466;28;20374;-79
2023/05/13 08:14:24;;;;;;;6.18;3.40;;;19.70;83.50;;;;;;5116429;28;20039;-79
2023/05/13 08:16:49;;;;;;;6.55;2.40;;;19.90;81.10;;;;;;5116144;28;20066;-79
2023/05/13 08:19:15;;;;;;;3.92;2.90;;;20.00;80.70;;;;;;5115056;28;20055;-79
2023/05/13 08:21:41;;;;;;;5.70;2.67;;;20.10;78.90;;;;;;5116188;28;20023;-79
2023/05/13 08:24:07;;;;;;;7.15;2.70;;;20.20;78.20;;;;;;5098435;28;20084;-79
2023/05/13 08:26:33;;;;;;;3.70;2.15;;;20.20;78.10;;;;;;5116822;28;20091;-76
2023/05/13 08:28:59;;;;;;;7.03;2.70;;;20.30;75.90;;;;;;5097941;28;20048;-79
2023/05/13 08:31:25;;;;;;;6.18;2.58;;;20.30;75.30;;;;;;5116399;28;20034;-80
2023/05/13 08:33:52;;;;;;;4.65;3.00;;;20.40;75.80;;;;;;5115839;28;20067;-80
2023/05/13 08:36:18;;;;;;;4.13;2.08;;;20.50;76.00;;;;;;5116181;28;20035;-80
2023/05/13 08:38:44;;;;;;;3.10;2.25;;;20.40;72.00;;;;;;5116058;28;20019;-80
2023/05/13 08:41:12;;;;;;;5.68;2.20;;;20.50;73.20;;;;;;5116505;28;20034;-79
2023/05/13 08:43:38;;;;;;;6.95;2.38;;;20.60;75.00;;;;;;5116461;28;20028;-79
2023/05/13 08:46:08;;;;;;;5.32;1.85;;;20.80;73.40;;;;;;5115928;28;20019;-79
2023/05/13 08:48:34;;;;;;;7.55;2.13;;;20.80;73.60;;;;;;5116109;28;20055;-80
2023/05/13 08:51:01;;;;;;;3.28;1.83;;;21.00;72.30;;;;;;5115496;28;20042;-79
2023/05/13 08:53:27;;;;;;;4.78;1.90;;;21.00;72.30;;;;;;5115902;28;20030;-79
2023/05/13 08:55:53;;;;;;;4.07;1.90;;;21.10;74.10;;;;;;5097444;28;20039;-79
2023/05/13 08:58:19;;;;;;;3.13;1.42;;;21.30;72.60;;;;;;5115081;28;20051;-80
2023/05/13 09:00:47;;;;;;;3.63;1.52;;;21.60;72.10;;;;;;5115296;28;20035;-80
2023/05/13 09:03:13;;;;;;;4.45;1.90;;;21.80;72.20;;;;;;5115741;28;20077;-80
2023/05/13 09:05:40;;;;;;;5.28;1.77;;;21.90;68.40;;;;;;5096780;28;20039;-80
2023/05/13 09:08:08;;;;;;;4.75;1.67;;;22.00;69.10;;;;;;5115950;28;20103;-80
2023/05/13 09:10:33;;;;;;;4.55;1.90;;;22.10;69.60;;;;;;5096726;28;20076;-80
2023/05/13 09:13:00;;;;;;;4.18;1.55;;;22.20;67.70;;;;;;5114929;28;20125;-80
2023/05/13 09:15:27;;;;;;;3.60;1.70;;;22.30;67.20;;;;;;5114108;28;20032;-80
2023/05/13 09:17:59;;;;;;;3.28;1.50;;;22.40;67.90;;;;;;5096821;28;20489;-80
2023/05/13 09:20:25;;;;;;;;;;;22.50;66.80;;;;;;5115314;28;20024;-80
2023/05/13 09:23:00;;;;;;;6.38;1.80;;;22.60;69.40;;;;;;5114661;28;20369;-81
2023/05/13 09:25:27;;;;;;;5.97;1.50;;;22.70;67.00;;;;;;5115149;28;20028;-80
2023/05/13 09:28:01;;;;;;;3.17;1.58;;;22.80;67.10;;;;;;5096368;28;20042;-80
2023/05/13 09:30:39;;;;;;;5.78;1.55;;;22.90;66.50;;;;;;5115503;28;20352;-80
2023/05/13 09:33:09;;;;;;;5.18;1.77;;;23.10;65.90;;;;;;5114954;28;20543;-80
2023/05/13 09:35:37;;;;;;;7.43;2.13;;;23.20;66.30;;;;;;5115195;28;20028;-80
2023/05/13 09:38:12;;;;;;;3.72;1.73;;;23.30;64.40;;;;;;5114875;28;20059;-81
2023/05/13 09:40:38;;;;;;;5.32;1.63;;;23.40;64.10;;;;;;5114895;28;20472;-80
2023/05/13 09:43:06;;;;;;;4.85;1.80;;;23.30;61.40;;;;;;5096324;28;20081;-80
2023/05/13 09:45:32;;;;;;;6.68;1.67;;;23.20;63.60;;;;;;5114993;28;20034;-78
2023/05/13 09:47:57;;;;;;;5.13;1.92;;;23.20;63.60;;;;;;5114436;28;20032;-79
2023/05/13 09:50:23;;;;;;;5.38;2.17;;;23.30;61.60;;;;;;5114340;28;20032;-79
2023/05/13 09:52:49;;;;;;;5.43;1.90;;;23.40;61.40;;;;;;5114582;28;20059;-79
2023/05/13 09:55:15;;;;;;;3.78;1.83;;;23.30;62.30;;;;;;5114618;28;20036;-79
2023/05/13 09:57:41;;;;;;;9.02;1.70;;;23.40;64.30;;;;;;5096504;28;20485;-79
2023/05/13 10:00:08;;;;;;;7.13;1.58;;;23.40;65.50;;;;;;5114420;28;20059;-78
2023/05/13 10:02:34;;;;;;;2.63;1.63;;;23.50;62.30;;;;;;5114414;28;20395;-79
2023/05/13 10:05:01;;;;;;;7.45;2.00;;;23.50;61.90;;;;;;5096194;28;20028;-79
2023/05/13 10:07:27;;;;;;;8.02;1.95;;;23.50;61.30;;;;;;5114187;28;20032;-80
2023/05/13 10:09:59;;;;;;;4.32;1.67;;;23.60;59.90;;;;;;5114369;28;20034;-79
2023/05/13 10:12:26;;;;;;;6.40;1.90;;;23.70;60.20;;;;;;5114736;28;20023;-79
2023/05/13 10:14:53;;;;;;;3.53;1.73;;;23.60;60.90;;;;;;5114099;28;20084;-79
2023/05/13 10:17:23;;;;;;;7.85;2.05;;;23.70;59.40;;;;;;5114271;28;20091;-79
2023/05/13 10:19:53;;;;;;;2.65;1.40;;;23.70;59.60;;;;;;5114072;28;20038;-79
2023/05/13 10:22:23;;;;;;;5.80;1.75;;;23.70;59.10;;;;;;5114293;28;20039;-79
2023/05/13 10:24:50;;;;;;;4.78;1.67;;;23.60;58.00;;;;;;5113964;28;20107;-80
2023/05/13 10:27:17;;;;;;;7.85;1.85;;;23.70;59.40;;;;;;5113852;28;20467;-79
2023/05/13 10:29:44;;;;;;;9.30;2.00;;;23.70;60.40;;;;;;5114382;28;20479;-79
2023/05/13 10:32:11;;;;;;;5.20;2.13;;;23.70;61.30;;;;;;5114526;28;20220;-79
2023/05/13 10:34:38;;;;;;;4.50;1.83;;;23.80;61.50;;;;;;5095948;28;20468;-78
2023/05/13 10:37:23;;;;;;;5.53;1.98;;;23.90;61.20;;;;;;5118281;28;20035;-79
2023/05/13 10:40:08;;;;;;;7.22;1.40;;;23.90;60.50;;;;;;5117853;28;20073;-79
2023/05/13 10:42:37;;;;;;;4.78;1.70;;;24.00;58.70;;;;;;5117990;28;20106;-78
2023/05/13 10:45:03;;;;;;;4.28;1.33;;;24.00;58.60;;;;;;5100385;28;20031;-79
2023/05/13 10:47:33;;;;;;;8.23;1.80;;;24.00;59.20;;;;;;5083362;28;20089;-77
2023/05/13 10:50:03;;;;;;;4.85;2.13;;;24.20;57.00;;;;;;5117654;28;20096;-79
2023/05/13 10:52:47;;;;;;;6.82;1.63;;;24.30;56.90;;;;;;5118772;28;20020;-79
2023/05/13 10:55:18;;;;;;;4.80;1.60;;;24.40;57.70;;;;;;5119060;28;20054;-77
2023/05/13 10:58:12;;;;;;;4.07;1.90;;;24.40;56.90;;;;;;5118160;28;20106;-79
2023/05/13 11:00:43;;;;;;;7.93;2.13;;;24.50;56.80;;;;;;5118006;28;20532;-78
2023/05/13 11:03:15;;;;;;;3.15;1.50;;;24.60;56.20;;;;;;5118193;28;20028;-78
2023/05/13 11:05:44;;;;;;;3.83;1.48;;;24.60;56.90;;;;;;5116671;28;20030;-79
2023/05/13 11:08:10;;;;;;;5.30;1.73;;;24.70;56.60;;;;;;5117929;28;20027;-78
2023/05/13 11:10:36;;;;;;;3.42;1.40;;;24.80;55.60;;;;;;5118120;28;20054;-78
2023/05/13 11:13:34;;;;;;;5.85;1.52;;;24.80;55.80;;;;;;5117756;28;20035;-79
2023/05/13 11:16:00;;;;;;;2.83;1.38;;;24.90;53.40;;;;;;5117213;28;20046;-78
2023/05/13 11:18:30;;;;;;;4.63;1.50;;;24.90;52.90;;;;;;5082129;28;20471;-78
2023/05/13 11:21:02;;;;;;;3.95;1.67;;;24.90;54.80;;;;;;5117434;28;20028;-78
2023/05/13 11:23:28;;;;;;;5.93;1.95;;;25.10;55.60;;;;;;5117949;28;20032;-78
2023/05/13 11:26:15;;;;;;;4.47;2.13;;;25.20;53.30;;;;;;5117695;28;20383;-79
2023/05/13 11:28:59;;;;;;;5.30;1.75;;;25.20;52.90;;;;;;5099372;28;20058;-79
2023/05/13 11:31:27;;;;;;;5.10;1.83;;;25.20;54.80;;;;;;5116976;28;20393;-78
2023/05/13 11:34:11;;;;;;;3.47;2.60;;;25.00;53.60;;;;;;5098981;28;20506;-79
2023/05/13 11:36:42;;;;;;;4.75;2.13;;;24.60;52.30;;;;;;5117061;28;20104;-79
2023/05/13 11:39:12;;;;;;;3.13;2.00;;;24.50;53.90;;;;;;5116877;28;20157;-80
2023/05/13 11:41:45;;;;;;;8.10;1.98;;;24.40;52.70;;;;;;5117412;28;20114;-79
2023/05/13 11:44:13;;;;;;;5.03;1.90;;;24.20;54.90;;;;;;5098912;28;20039;-79
2023/05/13 11:46:58;;;;;;;4.60;1.70;;;24.20;55.70;;;;;;5117697;28;20032;-80
2023/05/13 11:49:39;;;;;;;3.80;1.50;;;24.10;54.90;;;;;;5098516;28;20031;-79
2023/05/13 11:52:09;;;;;;;3.80;1.75;;;24.00;54.40;;;;;;5115712;28;20027;-79
2023/05/13 11:54:52;;;;;;;2.67;1.50;;;24.10;55.20;;;;;;5098362;28;20020;-79
2023/05/13 11:57:23;;;;;;;5.40;1.80;;;24.40;54.70;;;;;;5116959;28;20035;-78
2023/05/13 11:59:49;;;;;;;3.95;1.73;;;24.70;53.20;;;;;;5117067;28;20028;-80
2023/05/13 12:02:15;;;;;;;4.07;1.80;;;24.60;53.20;;;;;;5115507;28;20073;-79
2023/05/13 12:04:43;;;;;;;6.60;1.83;;;24.30;51.90;;;;;;5081822;28;20468;-79
2023/05/13 12:07:10;;;;;;;5.20;1.88;;;24.10;52.50;;;;;;5116277;28;20180;-79
2023/05/13 12:09:36;;;;;;;5.72;1.90;;;24.10;51.40;;;;;;5116856;28;20039;-79
2023/05/13 12:12:02;;;;;;;5.95;2.25;;;24.10;52.10;;;;;;5117315;28;20333;-79
2023/05/13 12:14:28;;;;;;;4.10;1.90;;;24.30;52.40;;;;;;5098605;28;20464;-79
2023/05/13 12:16:56;;;;;;;2.50;1.70;;;24.60;52.50;;;;;;5116481;28;20028;-79
2023/05/13 12:19:21;;;;;;;3.03;1.40;;;24.80;51.60;;;;;;5116684;28;20023;-78
2023/05/13 12:21:50;;;;;;;2.97;1.55;;;24.80;50.10;;;;;;5116121;28;20038;-79
2023/05/13 12:24:17;;;;;;;3.13;1.60;;;24.60;50.10;;;;;;5098007;28;20443;-79
2023/05/13 12:26:43;;;;;;;5.50;3.03;;;24.40;51.90;;;;;;5097986;28;20031;-79
2023/05/13 12:29:08;;;;;;;3.70;1.70;;;24.40;52.70;;;;;;5097639;28;20058;-78
2023/05/13 12:31:34;;;;;;;5.03;1.65;;;24.60;51.60;;;;;;5114614;28;20110;-79
2023/05/13 12:34:00;;;;;;;4.72;1.67;;;24.70;53.20;;;;;;5098250;28;20080;-79
2023/05/13 12:36:36;;;;;;;4.85;1.50;;;24.90;51.70;;;;;;5081105;28;20039;-79
2023/05/13 12:39:09;;;;;;;2.95;1.42;;;25.10;50.80;;;;;;5116451;28;20106;-79
2023/05/13 12:41:41;;;;;;;3.38;1.55;;;25.20;49.70;;;;;;5116020;28;20027;-79
2023/05/13 12:44:13;;;;;;;3.53;1.35;;;25.00;47.50;;;;;;5116404;28;20093;-79
2023/05/13 12:46:50;;;;;;;4.85;2.13;;;24.70;49.40;;;;;;5098494;28;20051;-80
2023/05/13 12:49:15;;;;;;;4.93;1.30;;;24.80;49.20;;;;;;5115816;28;20028;-79